sensor_id;sensor_type;location;lat;lon;timestamp;pressure;altitude;pressure_sealevel;temperature;humidity
64610;BME280;51019;46.090;6.350;2024-03-07T00:01:20;96855.03;;;4.13;99.10
64610;BME280;51019;46.090;6.350;2024-03-07T00:03:47;96858.56;;;3.41;100.00
64610;BME280;51019;46.090;6.350;2024-03-07T00:06:15;96856.06;;;3.39;100.00
64610;BME280;51019;46.090;6.350;2024-03-07T00:08:43;96844.88;;;2.95;100.00
64610;BME280;51019;46.090;6.350;2024-03-07T00:11:10;96852.69;;;3.09;100.00
64610;BME280;51019;46.090;6.350;2024-03-07T00:13:39;96850.78;;;3.26;100.00
64610;BME280;51019;46.090;6.350;2024-03-07T00:16:06;96855.13;;;3.26;100.00
64610;BME280;51019;46.090;6.350;2024-03-07T00:18:36;96846.47;;;2.97;100.00
64610;BME280;51019;46.090;6.350;2024-03-07T00:21:06;96843.94;;;2.96;100.00
64610;BME280;51019;46.090;6.350;2024-03-07T00:23:34;96842.50;;;3.06;100.00
64610;BME280;51019;46.090;6.350;2024-03-07T00:26:01;96801.00;;;2.77;100.00
64610;BME280;51019;46.090;6.350;2024-03-07T00:28:28;96819.66;;;2.98;100.00
64610;BME280;51019;46.090;6.350;2024-03-07T00:30:58;96832.97;;;2.92;100.00
64610;BME280;51019;46.090;6.350;2024-03-07T00:33:26;96822.00;;;3.31;100.00
64610;BME280;51019;46.090;6.350;2024-03-07T00:35:57;96838.03;;;2.93;100.00
64610;BME280;51019;46.090;6.350;2024-03-07T00:38:25;96833.69;;;2.94;100.00
64610;BME280;51019;46.090;6.350;2024-03-07T00:40:53;96833.00;;;2.31;100.00
64610;BME280;51019;46.090;6.350;2024-03-07T00:43:20;96840.00;;;2.29;100.00
64610;BME280;51019;46.090;6.350;2024-03-07T00:45:47;96839.91;;;1.83;100.00
64610;BME280;51019;46.090;6.350;2024-03-07T00:48:15;96836.06;;;2.06;100.00
64610;BME280;51019;46.090;6.350;2024-03-07T00:50:43;96833.59;;;2.36;100.00
64610;BME280;51019;46.090;6.350;2024-03-07T00:53:12;96836.03;;;2.69;100.00
64610;BME280;51019;46.090;6.350;2024-03-07T00:55:41;96822.94;;;2.56;100.00
64610;BME280;51019;46.090;6.350;2024-03-07T00:58:10;96811.38;;;2.77;100.00
64610;BME280;51019;46.090;6.350;2024-03-07T01:00:38;96804.16;;;2.82;100.00
64610;BME280;51019;46.090;6.350;2024-03-07T01:03:08;96833.03;;;2.90;100.00
64610;BME280;51019;46.090;6.350;2024-03-07T01:05:37;96826.16;;;2.30;100.00
64610;BME280;51019;46.090;6.350;2024-03-07T01:08:05;96818.81;;;2.06;100.00
64610;BME280;51019;46.090;6.350;2024-03-07T01:10:34;96827.47;;;2.05;100.00
64610;BME280;51019;46.090;6.350;2024-03-07T01:13:02;96763.09;;;2.16;100.00
64610;BME280;51019;46.090;6.350;2024-03-07T01:15:32;96832.38;;;2.57;100.00
64610;BME280;51019;46.090;6.350;2024-03-07T01:17:59;96798.53;;;2.30;100.00
64610;BME280;51019;46.090;6.350;2024-03-07T01:20:26;96823.25;;;2.66;100.00
64610;BME280;51019;46.090;6.350;2024-03-07T01:22:54;96817.88;;;2.39;100.00
64610;BME280;51019;46.090;6.350;2024-03-07T01:25:22;96813.28;;;2.28;100.00
64610;BME280;51019;46.090;6.350;2024-03-07T01:27:51;96807.94;;;2.47;100.00
64610;BME280;51019;46.090;6.350;2024-03-07T01:30:19;96808.63;;;2.19;100.00
64610;BME280;51019;46.090;6.350;2024-03-07T01:32:49;96801.84;;;2.78;100.00
64610;BME280;51019;46.090;6.350;2024-03-07T01:35:16;96804.38;;;2.34;100.00
64610;BME280;51019;46.090;6.350;2024-03-07T01:37:44;96797.50;;;2.03;100.00
64610;BME280;51019;46.090;6.350;2024-03-07T01:40:12;96794.94;;;2.17;100.00
64610;BME280;51019;46.090;6.350;2024-03-07T01:42:40;96797.78;;;1.81;100.00
64610;BME280;51019;46.090;6.350;2024-03-07T01:45:10;96790.53;;;2.19;100.00
64610;BME280;51019;46.090;6.350;2024-03-07T01:47:37;96744.88;;;1.88;100.00
64610;BME280;51019;46.090;6.350;2024-03-07T01:50:07;96784.63;;;1.86;100.00
64610;BME280;51019;46.090;6.350;2024-03-07T01:52:35;96772.78;;;1.97;100.00
64610;BME280;51019;46.090;6.350;2024-03-07T01:55:06;96782.94;;;2.16;100.00
64610;BME280;51019;46.090;6.350;2024-03-07T01:57:33;96752.94;;;1.98;100.00
64610;BME280;51019;46.090;6.350;2024-03-07T02:00:01;96779.63;;;2.14;100.00
64610;BME280;51019;46.090;6.350;2024-03-07T02:02:34;96759.69;;;2.00;100.00
64610;BME280;51019;46.090;6.350;2024-03-07T02:05:04;96768.31;;;2.46;100.00
64610;BME280;51019;46.090;6.350;2024-03-07T02:07:32;96762.16;;;2.17;100.00
64610;BME280;51019;46.090;6.350;2024-03-07T02:10:00;96761.47;;;2.30;100.00
64610;BME280;51019;46.090;6.350;2024-03-07T02:12:29;96746.19;;;1.95;100.00
64610;BME280;51019;46.090;6.350;2024-03-07T02:14:56;96761.47;;;1.68;100.00
64610;BME280;51019;46.090;6.350;2024-03-07T02:17:23;96762.59;;;1.94;100.00
64610;BME280;51019;46.090;6.350;2024-03-07T02:19:52;96749.72;;;1.78;100.00
64610;BME280;51019;46.090;6.350;2024-03-07T02:22:21;96753.63;;;2.01;100.00
64610;BME280;51019;46.090;6.350;2024-03-07T02:24:50;96770.38;;;2.10;100.00
64610;BME280;51019;46.090;6.350;2024-03-07T02:27:17;96768.13;;;1.88;100.00
64610;BME280;51019;46.090;6.350;2024-03-07T02:29:44;96762.72;;;1.77;100.00
64610;BME280;51019;46.090;6.350;2024-03-07T02:32:12;96763.97;;;1.86;100.00
64610;BME280;51019;46.090;6.350;2024-03-07T02:34:39;96762.69;;;2.08;100.00
64610;BME280;51019;46.090;6.350;2024-03-07T02:37:07;96753.22;;;1.77;100.00
64610;BME280;51019;46.090;6.350;2024-03-07T02:39:36;96751.81;;;2.17;100.00
64610;BME280;51019;46.090;6.350;2024-03-07T02:42:04;96749.91;;;2.05;100.00
64610;BME280;51019;46.090;6.350;2024-03-07T02:44:31;96741.44;;;1.72;100.00
64610;BME280;51019;46.090;6.350;2024-03-07T02:46:58;96669.78;;;1.13;100.00
64610;BME280;51019;46.090;6.350;2024-03-07T02:49:28;96740.09;;;1.96;100.00
64610;BME280;51019;46.090;6.350;2024-03-07T02:51:57;96741.19;;;1.76;100.00
64610;BME280;51019;46.090;6.350;2024-03-07T02:54:24;96743.88;;;1.91;100.00
64610;BME280;51019;46.090;6.350;2024-03-07T02:56:53;96750.09;;;1.71;100.00
64610;BME280;51019;46.090;6.350;2024-03-07T02:59:20;96747.78;;;1.82;100.00
64610;BME280;51019;46.090;6.350;2024-03-07T03:01:47;96745.69;;;1.73;100.00
64610;BME280;51019;46.090;6.350;2024-03-07T03:04:13;96730.38;;;1.54;100.00
64610;BME280;51019;46.090;6.350;2024-03-07T03:06:41;96741.47;;;1.56;100.00
64610;BME280;51019;46.090;6.350;2024-03-07T03:09:08;96740.44;;;1.59;100.00
64610;BME280;51019;46.090;6.350;2024-03-07T03:11:38;96719.09;;;1.39;100.00
64610;BME280;51019;46.090;6.350;2024-03-07T03:14:07;96709.28;;;1.62;100.00
64610;BME280;51019;46.090;6.350;2024-03-07T03:16:36;96732.47;;;1.79;100.00
64610;BME280;51019;46.090;6.350;2024-03-07T03:19:03;96730.34;;;1.70;100.00
64610;BME280;51019;46.090;6.350;2024-03-07T03:21:31;96727.03;;;1.52;100.00
64610;BME280;51019;46.090;6.350;2024-03-07T03:23:59;96734.53;;;1.57;100.00
64610;BME280;51019;46.090;6.350;2024-03-07T03:26:27;96731.44;;;1.66;100.00
64610;BME280;51019;46.090;6.350;2024-03-07T03:28:56;96734.34;;;1.60;100.00
64610;BME280;51019;46.090;6.350;2024-03-07T03:31:25;96734.59;;;1.39;100.00
64610;BME280;51019;46.090;6.350;2024-03-07T03:33:52;96733.09;;;1.98;100.00
64610;BME280;51019;46.090;6.350;2024-03-07T03:36:20;96735.44;;;1.40;100.00
64610;BME280;51019;46.090;6.350;2024-03-07T03:38:50;96731.44;;;1.66;100.00
64610;BME280;51019;46.090;6.350;2024-03-07T03:41:17;96718.75;;;1.30;100.00
64610;BME280;51019;46.090;6.350;2024-03-07T03:43:45;96725.91;;;1.25;100.00
64610;BME280;51019;46.090;6.350;2024-03-07T03:46:16;96709.38;;;1.44;100.00
64610;BME280;51019;46.090;6.350;2024-03-07T03:48:46;96717.03;;;1.46;100.00
64610;BME280;51019;46.090;6.350;2024-03-07T03:51:15;96721.25;;;1.31;100.00
64610;BME280;51019;46.090;6.350;2024-03-07T03:53:42;96707.59;;;1.61;100.00
64610;BME280;51019;46.090;6.350;2024-03-07T03:56:10;96719.81;;;1.26;100.00
64610;BME280;51019;46.090;6.350;2024-03-07T03:58:40;96710.97;;;1.14;100.00
64610;BME280;51019;46.090;6.350;2024-03-07T04:01:07;96717.38;;;1.07;100.00
64610;BME280;51019;46.090;6.350;2024-03-07T04:03:38;96717.44;;;1.38;100.00
64610;BME280;51019;46.090;6.350;2024-03-07T04:06:07;96719.69;;;1.60;100.00
64610;BME280;51019;46.090;6.350;2024-03-07T04:08:35;96707.28;;;1.02;100.00
64610;BME280;51019;46.090;6.350;2024-03-07T04:11:05;96709.50;;;1.10;100.00
64610;BME280;51019;46.090;6.350;2024-03-07T04:13:35;96711.50;;;1.21;100.00
64610;BME280;51019;46.090;6.350;2024-03-07T04:16:03;96708.69;;;1.41;100.00
64610;BME280;51019;46.090;6.350;2024-03-07T04:18:32;96706.09;;;1.25;100.00
64610;BME280;51019;46.090;6.350;2024-03-07T04:21:00;96706.94;;;1.41;100.00
64610;BME280;51019;46.090;6.350;2024-03-07T04:23:33;96701.69;;;1.59;100.00
64610;BME280;51019;46.090;6.350;2024-03-07T04:26:01;96689.03;;;1.38;100.00
64610;BME280;51019;46.090;6.350;2024-03-07T04:28:29;96698.34;;;1.25;100.00
64610;BME280;51019;46.090;6.350;2024-03-07T04:30:57;96683.97;;;0.88;100.00
64610;BME280;51019;46.090;6.350;2024-03-07T04:33:24;96699.09;;;1.27;100.00
64610;BME280;51019;46.090;6.350;2024-03-07T04:35:52;96673.28;;;1.27;100.00
64610;BME280;51019;46.090;6.350;2024-03-07T04:38:21;96707.09;;;1.23;100.00
64610;BME280;51019;46.090;6.350;2024-03-07T04:40:51;96696.50;;;1.27;100.00
64610;BME280;51019;46.090;6.350;2024-03-07T04:43:19;96689.25;;;1.18;100.00
64610;BME280;51019;46.090;6.350;2024-03-07T04:45:46;96709.84;;;1.51;100.00
64610;BME280;51019;46.090;6.350;2024-03-07T04:48:14;96686.50;;;1.05;100.00
64610;BME280;51019;46.090;6.350;2024-03-07T04:50:41;96698.34;;;0.77;100.00
64610;BME280;51019;46.090;6.350;2024-03-07T04:53:09;96694.25;;;0.72;100.00
64610;BME280;51019;46.090;6.350;2024-03-07T04:55:39;96696.28;;;0.83;100.00
64610;BME280;51019;46.090;6.350;2024-03-07T04:58:08;96696.63;;;0.25;100.00
64610;BME280;51019;46.090;6.350;2024-03-07T05:00:36;96698.84;;;0.33;100.00
64610;BME280;51019;46.090;6.350;2024-03-07T05:03:03;96685.47;;;0.59;100.00
64610;BME280;51019;46.090;6.350;2024-03-07T05:05:31;96703.81;;;0.70;100.00
64610;BME280;51019;46.090;6.350;2024-03-07T05:07:59;96703.03;;;0.68;100.00
64610;BME280;51019;46.090;6.350;2024-03-07T05:10:26;96705.88;;;0.97;100.00
64610;BME280;51019;46.090;6.350;2024-03-07T05:12:55;96712.16;;;0.76;100.00
64610;BME280;51019;46.090;6.350;2024-03-07T05:15:26;96676.78;;;0.78;100.00
64610;BME280;51019;46.090;6.350;2024-03-07T05:17:53;96705.44;;;0.56;100.00
64610;BME280;51019;46.090;6.350;2024-03-07T05:20:21;96705.81;;;0.81;100.00
64610;BME280;51019;46.090;6.350;2024-03-07T05:22:48;96707.69;;;0.95;100.00
64610;BME280;51019;46.090;6.350;2024-03-07T05:25:18;96711.31;;;1.08;100.00
64610;BME280;51019;46.090;6.350;2024-03-07T05:27:45;96710.56;;;1.06;100.00
64610;BME280;51019;46.090;6.350;2024-03-07T05:30:15;96703.91;;;1.18;100.00
64610;BME280;51019;46.090;6.350;2024-03-07T05:32:44;96709.16;;;0.83;100.00
64610;BME280;51019;46.090;6.350;2024-03-07T05:35:11;96687.19;;;0.76;100.00
64610;BME280;51019;46.090;6.350;2024-03-07T05:37:38;96711.53;;;0.88;100.00
64610;BME280;51019;46.090;6.350;2024-03-07T05:40:08;96698.00;;;0.83;100.00
64610;BME280;51019;46.090;6.350;2024-03-07T05:42:35;96710.13;;;0.98;100.00
64610;BME280;51019;46.090;6.350;2024-03-07T05:45:03;96699.53;;;0.87;100.00
64610;BME280;51019;46.090;6.350;2024-03-07T05:47:33;96706.19;;;0.91;100.00
64610;BME280;51019;46.090;6.350;2024-03-07T05:50:03;96706.22;;;0.73;100.00
64610;BME280;51019;46.090;6.350;2024-03-07T05:52:33;96709.25;;;0.82;100.00
64610;BME280;51019;46.090;6.350;2024-03-07T05:55:06;96711.13;;;0.45;100.00
64610;BME280;51019;46.090;6.350;2024-03-07T05:57:33;96713.81;;;0.59;100.00
64610;BME280;51019;46.090;6.350;2024-03-07T06:00:00;96716.41;;;0.77;100.00
64610;BME280;51019;46.090;6.350;2024-03-07T06:02:27;96716.34;;;0.94;100.00
64610;BME280;51019;46.090;6.350;2024-03-07T06:04:55;96705.47;;;0.71;100.00
64610;BME280;51019;46.090;6.350;2024-03-07T06:07:24;96708.53;;;0.62;100.00
64610;BME280;51019;46.090;6.350;2024-03-07T06:09:51;96705.03;;;0.46;100.00
64610;BME280;51019;46.090;6.350;2024-03-07T06:12:25;96689.28;;;0.35;100.00
64610;BME280;51019;46.090;6.350;2024-03-07T06:14:53;96720.22;;;0.18;100.00
64610;BME280;51019;46.090;6.350;2024-03-07T06:17:20;96722.53;;;0.74;100.00
64610;BME280;51019;46.090;6.350;2024-03-07T06:19:48;96722.50;;;0.91;100.00
64610;BME280;51019;46.090;6.350;2024-03-07T06:22:16;96701.84;;;0.76;100.00
64610;BME280;51019;46.090;6.350;2024-03-07T06:24:45;96720.13;;;0.71;100.00
64610;BME280;51019;46.090;6.350;2024-03-07T06:27:13;96724.41;;;1.21;100.00
64610;BME280;51019;46.090;6.350;2024-03-07T06:29:52;96719.84;;;0.93;100.00
64610;BME280;51019;46.090;6.350;2024-03-07T06:32:19;96712.47;;;0.52;100.00
64610;BME280;51019;46.090;6.350;2024-03-07T06:34:48;96707.19;;;0.55;100.00
64610;BME280;51019;46.090;6.350;2024-03-07T06:37:15;96728.47;;;1.25;100.00
64610;BME280;51019;46.090;6.350;2024-03-07T06:39:46;96730.63;;;1.01;100.00
64610;BME280;51019;46.090;6.350;2024-03-07T06:42:14;96727.16;;;0.85;100.00
64610;BME280;51019;46.090;6.350;2024-03-07T06:44:41;96721.53;;;0.44;100.00
64610;BME280;51019;46.090;6.350;2024-03-07T06:47:08;96725.63;;;0.81;100.00
64610;BME280;51019;46.090;6.350;2024-03-07T06:49:36;96733.00;;;1.21;100.00
64610;BME280;51019;46.090;6.350;2024-03-07T06:52:06;96718.38;;;1.69;100.00
64610;BME280;51019;46.090;6.350;2024-03-07T06:54:34;96723.50;;;2.00;100.00
64610;BME280;51019;46.090;6.350;2024-03-07T06:57:03;96725.63;;;1.78;100.00
64610;BME280;51019;46.090;6.350;2024-03-07T06:59:31;96731.44;;;1.66;100.00
64610;BME280;51019;46.090;6.350;2024-03-07T07:02:00;96740.78;;;1.84;100.00
64610;BME280;51019;46.090;6.350;2024-03-07T07:04:27;96733.34;;;1.94;100.00
64610;BME280;51019;46.090;6.350;2024-03-07T07:07:07;96732.81;;;2.18;100.00
64610;BME280;51019;46.090;6.350;2024-03-07T07:09:35;96713.16;;;2.60;100.00
64610;BME280;51019;46.090;6.350;2024-03-07T07:12:07;96723.38;;;2.91;100.00
64610;BME280;51019;46.090;6.350;2024-03-07T07:14:35;96722.84;;;3.15;100.00
64610;BME280;51019;46.090;6.350;2024-03-07T07:17:04;96727.34;;;3.54;100.00
64610;BME280;51019;46.090;6.350;2024-03-07T07:19:32;96724.88;;;3.79;100.00
64610;BME280;51019;46.090;6.350;2024-03-07T07:22:00;96716.63;;;4.66;93.08
64610;BME280;51019;46.090;6.350;2024-03-07T07:24:27;96715.31;;;4.73;93.52
64610;BME280;51019;46.090;6.350;2024-03-07T07:26:55;96722.88;;;4.51;95.70
64610;BME280;51019;46.090;6.350;2024-03-07T07:29:24;96714.81;;;4.93;93.65
64610;BME280;51019;46.090;6.350;2024-03-07T07:31:52;96718.53;;;4.77;95.03
64610;BME280;51019;46.090;6.350;2024-03-07T07:34:19;96717.28;;;4.69;95.12
64610;BME280;51019;46.090;6.350;2024-03-07T07:36:46;96718.59;;;4.50;99.09
64610;BME280;51019;46.090;6.350;2024-03-07T07:39:14;96708.84;;;4.66;96.60
64610;BME280;51019;46.090;6.350;2024-03-07T07:41:42;96706.28;;;5.17;96.05
64610;BME280;51019;46.090;6.350;2024-03-07T07:44:09;96696.53;;;5.07;95.61
64610;BME280;51019;46.090;6.350;2024-03-07T07:46:39;96702.59;;;5.94;90.83
64610;BME280;51019;46.090;6.350;2024-03-07T07:49:07;96703.44;;;5.32;93.28
64610;BME280;51019;46.090;6.350;2024-03-07T07:51:34;96705.53;;;5.76;92.73
64610;BME280;51019;46.090;6.350;2024-03-07T07:54:01;96690.00;;;5.64;91.35
64610;BME280;51019;46.090;6.350;2024-03-07T07:56:30;96697.56;;;5.05;98.87
64610;BME280;51019;46.090;6.350;2024-03-07T07:58:58;96695.84;;;5.78;94.38
64610;BME280;51019;46.090;6.350;2024-03-07T08:01:24;96679.47;;;5.29;97.11
64610;BME280;51019;46.090;6.350;2024-03-07T08:03:55;96687.25;;;6.61;90.92
64610;BME280;51019;46.090;6.350;2024-03-07T08:06:22;96693.34;;;6.37;88.95
64610;BME280;51019;46.090;6.350;2024-03-07T08:08:51;96691.06;;;6.68;86.64
64610;BME280;51019;46.090;6.350;2024-03-07T08:11:19;96695.09;;;6.37;91.30
64610;BME280;51019;46.090;6.350;2024-03-07T08:13:46;96685.84;;;6.68;85.19
64610;BME280;51019;46.090;6.350;2024-03-07T08:16:17;96676.13;;;6.59;87.33
64610;BME280;51019;46.090;6.350;2024-03-07T08:18:45;96672.03;;;7.45;82.60
64610;BME280;51019;46.090;6.350;2024-03-07T08:21:15;96681.53;;;7.24;86.50
64610;BME280;51019;46.090;6.350;2024-03-07T08:23:42;96676.59;;;7.21;85.14
64610;BME280;51019;46.090;6.350;2024-03-07T08:26:09;96674.06;;;7.64;81.34
64610;BME280;51019;46.090;6.350;2024-03-07T08:28:38;96676.00;;;7.94;80.50
64610;BME280;51019;46.090;6.350;2024-03-07T08:31:06;96674.19;;;7.40;81.93
64610;BME280;51019;46.090;6.350;2024-03-07T08:33:35;96668.94;;;8.17;80.20
64610;BME280;51019;46.090;6.350;2024-03-07T08:36:02;96674.53;;;7.36;82.41
64610;BME280;51019;46.090;6.350;2024-03-07T08:38:34;96668.50;;;8.12;77.09
64610;BME280;51019;46.090;6.350;2024-03-07T08:41:03;96670.41;;;9.34;68.80
64610;BME280;51019;46.090;6.350;2024-03-07T08:43:30;96671.53;;;7.85;75.41
64610;BME280;51019;46.090;6.350;2024-03-07T08:45:57;96653.91;;;8.41;72.55
64610;BME280;51019;46.090;6.350;2024-03-07T08:48:25;96647.75;;;8.31;72.91
64610;BME280;51019;46.090;6.350;2024-03-07T08:50:52;96658.84;;;9.06;71.20
64610;BME280;51019;46.090;6.350;2024-03-07T08:53:19;96653.56;;;9.27;70.57
64610;BME280;51019;46.090;6.350;2024-03-07T08:55:48;96649.94;;;10.08;67.77
64610;BME280;51019;46.090;6.350;2024-03-07T08:58:16;96658.75;;;10.75;63.04
64610;BME280;51019;46.090;6.350;2024-03-07T09:00:43;96643.75;;;10.19;64.83
64610;BME280;51019;46.090;6.350;2024-03-07T09:03:11;96665.16;;;10.24;65.73
64610;BME280;51019;46.090;6.350;2024-03-07T09:05:38;96662.03;;;9.90;66.43
64610;BME280;51019;46.090;6.350;2024-03-07T09:08:07;96659.06;;;10.72;61.01
64610;BME280;51019;46.090;6.350;2024-03-07T09:10:35;96643.50;;;11.07;59.49
64610;BME280;51019;46.090;6.350;2024-03-07T09:13:10;96639.16;;;10.88;60.37
64610;BME280;51019;46.090;6.350;2024-03-07T09:15:38;96650.50;;;9.13;69.81
64610;BME280;51019;46.090;6.350;2024-03-07T09:18:06;96639.63;;;9.17;70.66
64610;BME280;51019;46.090;6.350;2024-03-07T09:20:33;96636.13;;;10.06;68.13
64610;BME280;51019;46.090;6.350;2024-03-07T09:23:00;96648.00;;;10.78;64.57
64610;BME280;51019;46.090;6.350;2024-03-07T09:25:27;96637.97;;;11.10;63.10
64610;BME280;51019;46.090;6.350;2024-03-07T09:27:58;96613.69;;;10.42;63.25
64610;BME280;51019;46.090;6.350;2024-03-07T09:30:28;96620.44;;;10.16;67.89
64610;BME280;51019;46.090;6.350;2024-03-07T09:32:56;96649.91;;;11.32;66.34
64610;BME280;51019;46.090;6.350;2024-03-07T09:35:23;96642.13;;;11.40;63.66
64610;BME280;51019;46.090;6.350;2024-03-07T09:37:51;96621.28;;;11.11;65.44
64610;BME280;51019;46.090;6.350;2024-03-07T09:40:19;96644.41;;;13.04;57.69
64610;BME280;51019;46.090;6.350;2024-03-07T09:42:50;96632.56;;;12.21;58.22
64610;BME280;51019;46.090;6.350;2024-03-07T09:45:19;96641.19;;;11.96;61.02
64610;BME280;51019;46.090;6.350;2024-03-07T09:47:50;96628.75;;;12.33;57.61
64610;BME280;51019;46.090;6.350;2024-03-07T09:50:18;96616.47;;;13.12;54.96
64610;BME280;51019;46.090;6.350;2024-03-07T09:52:48;96629.56;;;12.52;56.95
64610;BME280;51019;46.090;6.350;2024-03-07T09:55:16;96634.25;;;12.84;55.46
64610;BME280;51019;46.090;6.350;2024-03-07T09:57:46;96620.47;;;12.90;54.87
64610;BME280;51019;46.090;6.350;2024-03-07T10:00:17;96627.63;;;12.36;53.93
64610;BME280;51019;46.090;6.350;2024-03-07T10:02:53;96621.03;;;13.01;52.97
64610;BME280;51019;46.090;6.350;2024-03-07T10:05:22;96628.25;;;12.73;54.75
64610;BME280;51019;46.090;6.350;2024-03-07T10:07:51;96624.09;;;13.15;54.06
64610;BME280;51019;46.090;6.350;2024-03-07T10:10:19;96629.59;;;12.78;54.43
64610;BME280;51019;46.090;6.350;2024-03-07T10:12:48;96623.94;;;13.42;49.97
64610;BME280;51019;46.090;6.350;2024-03-07T10:15:16;96614.75;;;13.54;48.07
64610;BME280;51019;46.090;6.350;2024-03-07T10:17:44;96610.59;;;13.86;50.27
64610;BME280;51019;46.090;6.350;2024-03-07T10:20:19;96619.53;;;14.09;47.06
64610;BME280;51019;46.090;6.350;2024-03-07T10:22:47;96612.31;;;14.84;46.49
64610;BME280;51019;46.090;6.350;2024-03-07T10:25:17;96613.34;;;12.82;48.58
64610;BME280;51019;46.090;6.350;2024-03-07T10:27:47;96606.22;;;12.49;48.47
64610;BME280;51019;46.090;6.350;2024-03-07T10:30:15;96604.38;;;14.19;45.74
64610;BME280;51019;46.090;6.350;2024-03-07T10:32:51;96594.53;;;14.45;45.89
64610;BME280;51019;46.090;6.350;2024-03-07T10:35:22;96594.69;;;14.60;44.22
64610;BME280;51019;46.090;6.350;2024-03-07T10:37:50;96598.81;;;14.87;44.98
64610;BME280;51019;46.090;6.350;2024-03-07T10:40:19;96595.00;;;15.84;40.74
64610;BME280;51019;46.090;6.350;2024-03-07T10:42:48;96601.69;;;15.72;40.06
64610;BME280;51019;46.090;6.350;2024-03-07T10:45:19;96583.09;;;15.10;42.05
64610;BME280;51019;46.090;6.350;2024-03-07T10:47:52;96584.63;;;14.72;43.29
64610;BME280;51019;46.090;6.350;2024-03-07T10:50:27;96577.69;;;13.98;45.24
64610;BME280;51019;46.090;6.350;2024-03-07T10:52:59;96556.28;;;16.22;41.25
64610;BME280;51019;46.090;6.350;2024-03-07T10:55:34;96562.44;;;16.14;41.86
64610;BME280;51019;46.090;6.350;2024-03-07T10:58:09;96573.06;;;16.52;40.68
64610;BME280;51019;46.090;6.350;2024-03-07T11:00:39;96569.91;;;16.33;40.02
64610;BME280;51019;46.090;6.350;2024-03-07T11:03:11;96572.38;;;16.58;40.26
64610;BME280;51019;46.090;6.350;2024-03-07T11:05:41;96567.50;;;16.24;41.43
64610;BME280;51019;46.090;6.350;2024-03-07T11:08:10;96570.03;;;17.15;39.05
64610;BME280;51019;46.090;6.350;2024-03-07T11:10:38;96565.16;;;16.89;39.82
64610;BME280;51019;46.090;6.350;2024-03-07T11:13:07;96565.16;;;17.33;38.23
64610;BME280;51019;46.090;6.350;2024-03-07T11:15:39;96559.41;;;17.45;39.36
64610;BME280;51019;46.090;6.350;2024-03-07T11:18:07;96557.72;;;17.73;38.61
64610;BME280;51019;46.090;6.350;2024-03-07T11:20:36;96542.94;;;16.76;40.17
64610;BME280;51019;46.090;6.350;2024-03-07T11:26:09;96555.88;;;19.01;36.42
64610;BME280;51019;46.090;6.350;2024-03-07T11:28:37;96545.63;;;19.26;36.34
64610;BME280;51019;46.090;6.350;2024-03-07T11:31:09;96544.00;;;18.97;37.56
64610;BME280;51019;46.090;6.350;2024-03-07T11:33:37;96520.75;;;17.65;37.93
64610;BME280;51019;46.090;6.350;2024-03-07T11:36:08;96529.09;;;17.18;38.93
64610;BME280;51019;46.090;6.350;2024-03-07T11:38:45;96512.34;;;18.46;36.98
64610;BME280;51019;46.090;6.350;2024-03-07T11:41:19;96530.06;;;19.23;36.94
64610;BME280;51019;46.090;6.350;2024-03-07T11:43:47;96527.94;;;18.77;36.85
64610;BME280;51019;46.090;6.350;2024-03-07T11:46:14;96512.66;;;20.49;35.03
64610;BME280;51019;46.090;6.350;2024-03-07T11:48:43;96507.56;;;19.67;36.26
64610;BME280;51019;46.090;6.350;2024-03-07T11:51:12;96505.78;;;18.98;36.50
64610;BME280;51019;46.090;6.350;2024-03-07T11:53:40;96503.06;;;20.41;34.37
64610;BME280;51019;46.090;6.350;2024-03-07T11:56:07;96485.22;;;20.35;34.22
64610;BME280;51019;46.090;6.350;2024-03-07T11:58:43;96496.25;;;19.10;36.36
64610;BME280;51019;46.090;6.350;2024-03-07T12:01:11;96485.28;;;19.20;36.19
64610;BME280;51019;46.090;6.350;2024-03-07T12:03:39;96499.63;;;19.26;35.26
64610;BME280;51019;46.090;6.350;2024-03-07T12:06:08;96485.34;;;20.01;34.67
64610;BME280;51019;46.090;6.350;2024-03-07T12:08:40;96482.13;;;20.71;34.53
64610;BME280;51019;46.090;6.350;2024-03-07T12:11:08;96475.34;;;20.09;34.07
64610;BME280;51019;46.090;6.350;2024-03-07T12:13:43;96481.91;;;20.79;33.29
64610;BME280;51019;46.090;6.350;2024-03-07T12:16:10;96464.41;;;21.29;32.25
64610;BME280;51019;46.090;6.350;2024-03-07T12:18:38;96469.03;;;21.85;31.34
64610;BME280;51019;46.090;6.350;2024-03-07T12:21:09;96459.50;;;22.02;31.21
64610;BME280;51019;46.090;6.350;2024-03-07T12:23:38;96459.84;;;20.52;33.27
64610;BME280;51019;46.090;6.350;2024-03-07T12:26:05;96457.25;;;21.03;33.92
64610;BME280;51019;46.090;6.350;2024-03-07T12:28:33;96452.81;;;20.78;33.02
64610;BME280;51019;46.090;6.350;2024-03-07T12:31:02;96441.59;;;19.97;34.70
64610;BME280;51019;46.090;6.350;2024-03-07T12:33:32;96445.28;;;19.35;35.45
64610;BME280;51019;46.090;6.350;2024-03-07T12:36:05;96427.94;;;21.61;33.12
64610;BME280;51019;46.090;6.350;2024-03-07T12:38:32;96440.94;;;20.67;34.50
64610;BME280;51019;46.090;6.350;2024-03-07T12:41:02;96446.72;;;20.57;33.54
64610;BME280;51019;46.090;6.350;2024-03-07T12:43:32;96430.31;;;20.67;34.59
64610;BME280;51019;46.090;6.350;2024-03-07T12:46:02;96430.94;;;21.33;33.39
64610;BME280;51019;46.090;6.350;2024-03-07T12:48:32;96429.16;;;21.14;32.93
64610;BME280;51019;46.090;6.350;2024-03-07T12:50:59;96424.31;;;21.49;32.29
64610;BME280;51019;46.090;6.350;2024-03-07T12:53:27;96421.28;;;20.75;33.44
64610;BME280;51019;46.090;6.350;2024-03-07T12:55:55;96417.81;;;20.54;33.65
64610;BME280;51019;46.090;6.350;2024-03-07T12:58:22;96411.94;;;20.39;34.03
64610;BME280;51019;46.090;6.350;2024-03-07T13:00:51;96398.81;;;20.51;33.54
64610;BME280;51019;46.090;6.350;2024-03-07T13:03:19;96390.97;;;21.96;32.32
64610;BME280;51019;46.090;6.350;2024-03-07T13:05:47;96399.38;;;20.66;33.94
64610;BME280;51019;46.090;6.350;2024-03-07T13:08:14;96395.09;;;20.58;34.35
64610;BME280;51019;46.090;6.350;2024-03-07T13:10:42;96387.66;;;20.80;34.74
64610;BME280;51019;46.090;6.350;2024-03-07T13:13:10;96383.47;;;20.13;34.36